createdAt,value
2018-12-02T14:16:02.484Z,33.52
2018-12-02T14:18:28.846Z,33.32
2018-12-02T14:20:55.230Z,33.83
2018-12-02T14:23:21.578Z,33.88
2018-12-02T14:25:47.914Z,33.89
2018-12-02T14:28:14.245Z,34.14
2018-12-02T14:30:40.611Z,34.80
2018-12-02T14:33:06.954Z,34.08
2018-12-02T14:35:33.315Z,34.49
2018-12-02T14:37:59.650Z,34.12
2018-12-02T14:40:26.051Z,34.29
2018-12-02T14:42:52.469Z,34.07
2018-12-02T14:45:18.760Z,34.13
2018-12-02T14:47:45.095Z,33.89
2018-12-02T14:50:11.465Z,33.82
2018-12-02T14:52:37.830Z,33.98
2018-12-02T14:55:04.263Z,33.90
2018-12-02T14:57:30.602Z,34.12
2018-12-02T14:59:56.941Z,34.05
2018-12-02T15:02:23.338Z,34.10
2018-12-02T15:04:49.772Z,34.44
2018-12-02T15:07:16.056Z,34.15
2018-12-02T15:09:42.452Z,34.41
2018-12-02T15:12:08.861Z,34.58
2018-12-02T15:14:35.210Z,34.34
2018-12-02T15:17:01.648Z,34.64
2018-12-02T15:19:28.022Z,34.37
2018-12-02T15:21:54.411Z,34.87
2018-12-02T15:24:20.753Z,34.43
2018-12-02T15:26:47.158Z,34.42
2018-12-02T15:29:13.519Z,34.26
2018-12-02T15:31:39.850Z,34.36
2018-12-02T15:34:06.236Z,34.57
2018-12-02T15:36:32.574Z,34.61
2018-12-02T15:38:59.034Z,35.16
2018-12-02T15:41:25.391Z,35.17
2018-12-02T15:43:51.791Z,34.97
2018-12-02T15:46:18.125Z,35.46
2018-12-02T15:48:44.523Z,35.41
2018-12-02T15:51:10.878Z,35.51
2018-12-02T15:53:37.198Z,35.33
2018-12-02T15:56:03.537Z,35.48
2018-12-02T15:58:29.949Z,35.75
2018-12-02T16:00:56.395Z,35.61
2018-12-02T16:03:22.743Z,35.92
2018-12-02T16:05:49.132Z,36.02
2018-12-02T16:08:15.505Z,36.51
2018-12-02T16:10:41.900Z,35.93
2018-12-02T16:13:08.238Z,35.79
2018-12-02T16:15:34.621Z,34.76
2018-12-02T16:18:02.011Z,34.60
2018-12-02T16:20:27.361Z,34.52
2018-12-02T16:22:55.976Z,35.01
2018-12-02T16:25:22.313Z,35.10
2018-12-02T16:27:48.642Z,34.76
2018-12-02T16:30:14.970Z,35.16
2018-12-02T16:32:41.368Z,34.45
2018-12-02T16:35:07.754Z,34.04
2018-12-02T16:37:34.105Z,34.10
2018-12-02T16:40:00.434Z,34.34
2018-12-02T16:42:26.825Z,34.51
2018-12-02T16:44:53.224Z,34.39
2018-12-02T16:47:19.582Z,34.24
2018-12-02T16:49:45.919Z,34.36
2018-12-02T16:52:12.280Z,34.47
2018-12-02T16:54:38.649Z,34.43
2018-12-02T16:57:05.063Z,34.56
2018-12-02T16:59:31.388Z,34.58
2018-12-02T17:01:57.737Z,34.75
2018-12-02T17:04:24.176Z,34.70
2018-12-02T17:06:50.464Z,34.71
2018-12-02T17:09:16.814Z,34.72
2018-12-02T17:11:43.225Z,34.71
2018-12-02T17:14:09.574Z,34.68
2018-12-02T17:16:35.849Z,34.62
2018-12-02T17:19:02.205Z,34.54
2018-12-02T17:21:28.568Z,34.56
2018-12-02T17:23:54.873Z,34.50
2018-12-02T17:26:21.220Z,34.45
2018-12-02T17:28:47.702Z,34.39
2018-12-02T17:31:14.237Z,34.39
2018-12-02T17:33:40.575Z,34.45
2018-12-02T17:36:06.906Z,34.51
2018-12-02T17:38:33.239Z,34.56
2018-12-02T17:40:59.611Z,34.59
2018-12-02T17:43:26.045Z,34.71
2018-12-02T17:45:52.386Z,34.76
2018-12-02T17:48:18.733Z,34.72
2018-12-02T17:50:45.137Z,34.77
2018-12-02T17:53:11.544Z,34.67
2018-12-02T17:55:37.952Z,34.71
2018-12-02T17:58:04.318Z,34.52
2018-12-02T18:00:30.699Z,34.59
2018-12-02T18:02:57.023Z,34.39
2018-12-02T18:05:23.462Z,34.34
2018-12-02T18:07:49.897Z,34.30
2018-12-02T18:10:16.249Z,34.42
2018-12-02T18:12:42.657Z,34.33
2018-12-02T18:15:09.049Z,34.20
2018-12-02T18:17:35.456Z,34.22
2018-12-02T18:20:01.820Z,34.21
2018-12-02T18:22:28.301Z,34.29
2018-12-02T18:24:54.750Z,34.29
2018-12-02T18:27:21.390Z,34.48
2018-12-02T18:29:47.794Z,34.35
2018-12-02T18:32:14.148Z,34.27
2018-12-02T18:34:40.552Z,34.26
2018-12-02T18:37:06.921Z,34.37
2018-12-02T18:39:33.261Z,34.47
2018-12-02T18:41:59.619Z,34.48
2018-12-02T18:44:25.983Z,34.39
2018-12-02T18:46:52.424Z,34.55
2018-12-02T18:49:18.765Z,34.45
2018-12-02T18:51:45.168Z,34.35
2018-12-02T18:54:11.517Z,34.31
2018-12-02T18:56:37.866Z,34.39
2018-12-02T18:59:04.192Z,34.16
2018-12-02T19:01:30.664Z,34.20
2018-12-02T19:03:56.999Z,34.15
2018-12-02T19:06:28.132Z,34.23
2018-12-02T19:08:49.672Z,34.39
2018-12-02T19:11:16.019Z,34.19
2018-12-02T19:13:43.724Z,34.10
2018-12-02T19:16:08.792Z,34.14
2018-12-02T19:18:35.185Z,34.07
2018-12-02T19:21:01.519Z,34.19
2018-12-02T19:23:27.851Z,34.26
2018-12-02T19:25:54.229Z,34.39
2018-12-02T19:28:20.593Z,34.52
2018-12-02T19:30:46.941Z,34.30
2018-12-02T19:33:13.337Z,34.33
2018-12-02T19:35:39.673Z,34.24
2018-12-02T19:38:05.998Z,34.13
2018-12-02T19:40:32.332Z,34.03
2018-12-02T19:42:58.677Z,33.89
2018-12-02T19:45:25.085Z,34.01
2018-12-02T19:47:51.415Z,34.04
2018-12-02T19:50:17.757Z,33.96
2018-12-02T19:52:44.094Z,34.04
2018-12-02T19:55:10.503Z,34.16
2018-12-02T19:57:36.871Z,34.07
2018-12-02T20:00:03.250Z,34.07
2018-12-02T20:02:29.563Z,34.07
2018-12-02T20:04:55.914Z,34.10
2018-12-02T20:07:22.452Z,34.23
2018-12-02T20:09:48.823Z,34.19
2018-12-02T20:12:15.216Z,34.33
2018-12-02T20:14:41.629Z,34.22
2018-12-02T20:17:07.949Z,34.20
2018-12-02T20:19:34.360Z,34.26
2018-12-02T20:22:00.663Z,34.29
2018-12-02T20:24:26.992Z,34.28
2018-12-02T20:26:53.340Z,34.39
2018-12-02T20:29:19.660Z,34.36
2018-12-02T20:31:46.012Z,34.28
2018-12-02T20:34:12.397Z,34.20
2018-12-02T20:36:38.796Z,34.23
2018-12-02T20:39:05.128Z,34.18
2018-12-02T20:41:31.471Z,34.10
2018-12-02T20:43:57.856Z,33.99
2018-12-02T20:46:24.188Z,34.22
2018-12-02T20:48:50.584Z,34.29
2018-12-02T20:51:16.912Z,34.44
2018-12-02T20:53:43.345Z,34.18
2018-12-02T20:56:09.637Z,34.15
2018-12-02T20:58:36.026Z,34.22
2018-12-02T21:01:02.381Z,34.21
2018-12-02T21:03:28.750Z,34.40
2018-12-02T21:05:55.042Z,34.47
2018-12-02T21:08:21.372Z,34.26
2018-12-02T21:10:47.715Z,34.26
2018-12-02T21:13:14.091Z,34.29
2018-12-02T21:15:40.469Z,34.29
2018-12-02T21:18:06.840Z,34.39
2018-12-02T21:20:33.185Z,34.10
2018-12-02T21:22:59.600Z,34.10
2018-12-02T21:25:25.928Z,34.20
2018-12-02T21:27:52.282Z,34.10
2018-12-02T21:30:18.660Z,34.00
2018-12-02T21:32:44.933Z,34.24
2018-12-02T21:35:11.330Z,34.34
2018-12-02T21:37:37.673Z,34.23
2018-12-02T21:40:04.106Z,34.03
2018-12-02T21:42:30.515Z,34.19
2018-12-02T21:44:56.842Z,34.26
2018-12-02T21:47:23.251Z,34.21
2018-12-02T21:49:49.590Z,34.24
2018-12-02T21:52:15.998Z,34.10
2018-12-02T21:54:42.326Z,34.04
2018-12-02T21:57:08.742Z,34.20
2018-12-02T21:59:35.080Z,34.20
2018-12-02T22:02:01.461Z,34.17
2018-12-02T22:04:27.841Z,34.07
2018-12-02T22:06:54.200Z,34.19
2018-12-02T22:09:20.596Z,34.16
2018-12-02T22:11:46.895Z,34.16
2018-12-02T22:14:13.344Z,34.22
2018-12-02T22:16:39.687Z,34.45
2018-12-02T22:19:06.084Z,34.25
2018-12-02T22:21:32.430Z,34.16
2018-12-02T22:24:01.272Z,34.22
2018-12-02T22:26:25.180Z,34.07
2018-12-02T22:28:51.605Z,34.26
2018-12-02T22:31:18.074Z,34.10
2018-12-02T22:33:44.421Z,34.24
2018-12-02T22:36:13.908Z,34.31
2018-12-02T22:38:37.272Z,34.29
2018-12-02T22:41:03.659Z,34.16
2018-12-02T22:43:30.010Z,34.15
2018-12-02T22:45:56.361Z,34.20
2018-12-02T22:48:22.704Z,33.99
2018-12-02T22:50:49.043Z,33.82
2018-12-02T22:53:15.396Z,33.89
2018-12-02T22:55:41.724Z,34.03
2018-12-02T22:58:08.125Z,33.93
2018-12-02T23:00:34.460Z,34.00
2018-12-02T23:03:00.879Z,34.05
2018-12-02T23:05:27.212Z,34.01
2018-12-02T23:07:53.546Z,33.93
2018-12-02T23:10:19.917Z,33.85
2018-12-02T23:12:46.230Z,33.84
2018-12-02T23:15:12.640Z,34.04
2018-12-02T23:17:39.067Z,33.94
2018-12-02T23:20:05.512Z,33.87
2018-12-02T23:22:31.816Z,33.84
2018-12-02T23:24:58.171Z,33.94
2018-12-02T23:27:24.523Z,33.89
2018-12-02T23:29:50.891Z,33.67
2018-12-02T23:32:17.219Z,33.75
2018-12-02T23:34:43.545Z,33.71
2018-12-02T23:37:09.879Z,33.68
2018-12-02T23:39:36.338Z,33.52
2018-12-02T23:42:02.674Z,33.62
2018-12-02T23:44:29.086Z,33.48
2018-12-02T23:46:55.422Z,33.50
2018-12-02T23:49:21.818Z,33.70
2018-12-02T23:51:48.147Z,33.50
2018-12-02T23:54:14.476Z,33.52
2018-12-02T23:56:40.955Z,33.48
2018-12-02T23:59:07.311Z,33.58
